Pagrindinis puslapis
METAR-TAF:

METAR-TAF

Oro uostai :

Mogiliavas, Baltarusija

platuma: 53-57-18N, ilguma: 030-05-42E, Aukštis: 194 m

Dabartinis oras

Ataskaita buvo paskelbta 30 minutes, ne 08:00 UTC
Vėjas 4 kt iš Pietų/Pietvakarių
Temperatūra 12°C
Drėgmė 82%
Slėgis 1019 hPa
Matomumas: 9000 m
Su prošvaistėmis ne aukštis 3600 ft
Su prošvaistėmis

METAR: UMOO 180800Z 20002MPS 9000 BKN036 BKN/// 12/09 Q1019 R31/CLRD// NOSIG

Laikas: 11:30 (08:30 UTC)

Prognozė

Ataskaita buvo paskelbta 3 valandos ir 30 minutes, ne 05:00 UTC
Prognozė galioja nuo 18 metu 06 UTC su 18 metu 15 UTC
Vėjas 10 kt iš Pietvakarių
Matomumas 10 km arba daugiau
Su prošvaistėmis ne aukštis 2000 ft
Laikinai
nuo 18 metu 06 UTC su 18 metu 15 UTC
Vėjas 12 kt iš Pietų

TAF: UMOO 180500Z 1806/1815 23005MPS 9999 BKN020 TEMPO 1806/1815 18006MPS

Orai ataskaitas ir orų prognozės (METAR, TAF).

turimą stotys yra geltonos ir raudonos taškus žemėlapyje.

Perkelti pele per norėdami pamatyti stoties vardą.

Tada spustelėkite, norėdami matyti oro stebėjimo ir prognozės.

Norėdami pakeisti žemėlapį: spustelėkite ant žalios mygtukų su juodo kryžiaus žemyn,; žalią mygtuką su brūkšneliu, jei norite nutolinti; arba žalių rodyklių gretimoms žemėlapius.


METAR-TAF: